sensor_id;sensor_type;location;lat;lon;timestamp;P1;durP1;ratioP1;P2;durP2;ratioP2
31798;SDS011;18374;51.136;3.502;2023-05-10T00:01:12;34.90;;;14.30;;
31798;SDS011;18374;51.136;3.502;2023-05-10T00:03:40;30.50;;;13.93;;
31798;SDS011;18374;51.136;3.502;2023-05-10T00:06:08;36.03;;;15.88;;
31798;SDS011;18374;51.136;3.502;2023-05-10T00:08:35;40.05;;;16.60;;
31798;SDS011;18374;51.136;3.502;2023-05-10T00:11:03;41.97;;;19.10;;
31798;SDS011;18374;51.136;3.502;2023-05-10T00:13:31;46.70;;;19.73;;
31798;SDS011;18374;51.136;3.502;2023-05-10T00:15:59;46.28;;;21.23;;
31798;SDS011;18374;51.136;3.502;2023-05-10T00:18:27;49.80;;;20.80;;
31798;SDS011;18374;51.136;3.502;2023-05-10T00:20:55;50.75;;;22.00;;
31798;SDS011;18374;51.136;3.502;2023-05-10T00:23:23;55.78;;;21.08;;
31798;SDS011;18374;51.136;3.502;2023-05-10T00:25:50;51.03;;;22.38;;
31798;SDS011;18374;51.136;3.502;2023-05-10T00:28:18;53.60;;;22.73;;
31798;SDS011;18374;51.136;3.502;2023-05-10T00:30:46;51.60;;;22.33;;
31798;SDS011;18374;51.136;3.502;2023-05-10T00:33:13;58.45;;;24.05;;
31798;SDS011;18374;51.136;3.502;2023-05-10T00:35:41;60.50;;;23.13;;
31798;SDS011;18374;51.136;3.502;2023-05-10T00:38:09;55.78;;;22.67;;
31798;SDS011;18374;51.136;3.502;2023-05-10T00:40:37;51.60;;;23.77;;
31798;SDS011;18374;51.136;3.502;2023-05-10T00:43:10;53.40;;;24.33;;
31798;SDS011;18374;51.136;3.502;2023-05-10T00:45:38;57.42;;;23.33;;
31798;SDS011;18374;51.136;3.502;2023-05-10T00:48:07;55.63;;;24.73;;
31798;SDS011;18374;51.136;3.502;2023-05-10T00:50:35;63.40;;;25.08;;
31798;SDS011;18374;51.136;3.502;2023-05-10T00:53:03;52.30;;;23.27;;
31798;SDS011;18374;51.136;3.502;2023-05-10T00:55:31;56.72;;;22.45;;
31798;SDS011;18374;51.136;3.502;2023-05-10T00:57:59;49.70;;;22.70;;
31798;SDS011;18374;51.136;3.502;2023-05-10T01:00:27;47.95;;;20.48;;
31798;SDS011;18374;51.136;3.502;2023-05-10T01:02:56;51.40;;;22.42;;
31798;SDS011;18374;51.136;3.502;2023-05-10T01:05:24;46.63;;;21.10;;
31798;SDS011;18374;51.136;3.502;2023-05-10T01:07:54;48.28;;;20.05;;
31798;SDS011;18374;51.136;3.502;2023-05-10T01:10:23;47.80;;;20.42;;
31798;SDS011;18374;51.136;3.502;2023-05-10T01:12:51;45.95;;;19.70;;
31798;SDS011;18374;51.136;3.502;2023-05-10T01:15:20;46.05;;;18.73;;
31798;SDS011;18374;51.136;3.502;2023-05-10T01:17:48;43.63;;;19.88;;
31798;SDS011;18374;51.136;3.502;2023-05-10T01:20:16;46.08;;;19.80;;
31798;SDS011;18374;51.136;3.502;2023-05-10T01:26:12;47.78;;;19.45;;
31798;SDS011;18374;51.136;3.502;2023-05-10T01:34:45;52.90;;;19.77;;
31798;SDS011;18374;51.136;3.502;2023-05-10T01:37:46;47.08;;;21.10;;
31798;SDS011;18374;51.136;3.502;2023-05-10T01:43:31;44.63;;;20.52;;
31798;SDS011;18374;51.136;3.502;2023-05-10T01:46:07;50.55;;;20.73;;
31798;SDS011;18374;51.136;3.502;2023-05-10T01:48:47;56.20;;;21.25;;
31798;SDS011;18374;51.136;3.502;2023-05-10T01:51:22;58.13;;;21.95;;
31798;SDS011;18374;51.136;3.502;2023-05-10T01:53:54;60.47;;;21.20;;
31798;SDS011;18374;51.136;3.502;2023-05-10T01:56:28;50.17;;;19.17;;
31798;SDS011;18374;51.136;3.502;2023-05-10T01:58:59;51.53;;;20.70;;
31798;SDS011;18374;51.136;3.502;2023-05-10T02:01:33;51.72;;;19.05;;
31798;SDS011;18374;51.136;3.502;2023-05-10T02:04:04;55.67;;;20.15;;
31798;SDS011;18374;51.136;3.502;2023-05-10T02:06:35;46.40;;;20.10;;
31798;SDS011;18374;51.136;3.502;2023-05-10T02:09:06;45.63;;;19.20;;
31798;SDS011;18374;51.136;3.502;2023-05-10T02:11:37;46.33;;;19.35;;
31798;SDS011;18374;51.136;3.502;2023-05-10T02:14:07;44.08;;;18.80;;
31798;SDS011;18374;51.136;3.502;2023-05-10T02:16:37;43.70;;;18.83;;
31798;SDS011;18374;51.136;3.502;2023-05-10T02:19:06;43.10;;;18.30;;
31798;SDS011;18374;51.136;3.502;2023-05-10T02:21:36;44.97;;;18.35;;
31798;SDS011;18374;51.136;3.502;2023-05-10T02:24:06;49.58;;;18.70;;
31798;SDS011;18374;51.136;3.502;2023-05-10T02:26:35;39.45;;;17.40;;
31798;SDS011;18374;51.136;3.502;2023-05-10T02:29:05;41.55;;;17.35;;
31798;SDS011;18374;51.136;3.502;2023-05-10T02:31:35;40.75;;;17.65;;
31798;SDS011;18374;51.136;3.502;2023-05-10T02:34:05;43.92;;;18.00;;
31798;SDS011;18374;51.136;3.502;2023-05-10T02:36:36;47.15;;;18.17;;
31798;SDS011;18374;51.136;3.502;2023-05-10T02:39:05;41.97;;;18.83;;
31798;SDS011;18374;51.136;3.502;2023-05-10T02:41:42;38.63;;;17.45;;
31798;SDS011;18374;51.136;3.502;2023-05-10T02:44:14;44.63;;;18.10;;
31798;SDS011;18374;51.136;3.502;2023-05-10T02:46:46;43.67;;;18.45;;
31798;SDS011;18374;51.136;3.502;2023-05-10T02:49:15;37.35;;;17.10;;
31798;SDS011;18374;51.136;3.502;2023-05-10T02:51:50;36.50;;;16.90;;
31798;SDS011;18374;51.136;3.502;2023-05-10T02:54:27;41.10;;;16.45;;
31798;SDS011;18374;51.136;3.502;2023-05-10T02:57:00;41.50;;;17.60;;
31798;SDS011;18374;51.136;3.502;2023-05-10T02:59:31;44.95;;;17.65;;
31798;SDS011;18374;51.136;3.502;2023-05-10T03:01:59;43.78;;;17.45;;
31798;SDS011;18374;51.136;3.502;2023-05-10T03:04:27;41.67;;;18.45;;
31798;SDS011;18374;51.136;3.502;2023-05-10T03:06:57;40.17;;;18.38;;
31798;SDS011;18374;51.136;3.502;2023-05-10T03:09:25;35.40;;;17.55;;
31798;SDS011;18374;51.136;3.502;2023-05-10T03:18:29;41.22;;;18.35;;
31798;SDS011;18374;51.136;3.502;2023-05-10T03:21:25;45.40;;;20.17;;
31798;SDS011;18374;51.136;3.502;2023-05-10T03:24:05;53.05;;;18.40;;
31798;SDS011;18374;51.136;3.502;2023-05-10T03:26:36;51.63;;;19.42;;
31798;SDS011;18374;51.136;3.502;2023-05-10T03:29:13;48.20;;;18.63;;
31798;SDS011;18374;51.136;3.502;2023-05-10T03:31:42;49.75;;;19.95;;
31798;SDS011;18374;51.136;3.502;2023-05-10T03:34:10;47.38;;;19.13;;
31798;SDS011;18374;51.136;3.502;2023-05-10T03:36:38;50.30;;;18.90;;
31798;SDS011;18374;51.136;3.502;2023-05-10T03:39:06;46.10;;;19.83;;
31798;SDS011;18374;51.136;3.502;2023-05-10T03:41:33;53.55;;;20.40;;
31798;SDS011;18374;51.136;3.502;2023-05-10T03:44:02;51.50;;;21.40;;
31798;SDS011;18374;51.136;3.502;2023-05-10T03:46:30;60.92;;;21.65;;
31798;SDS011;18374;51.136;3.502;2023-05-10T03:48:58;61.28;;;23.35;;
31798;SDS011;18374;51.136;3.502;2023-05-10T03:51:26;63.47;;;22.83;;
31798;SDS011;18374;51.136;3.502;2023-05-10T03:53:55;62.95;;;23.10;;
31798;SDS011;18374;51.136;3.502;2023-05-10T03:56:23;59.60;;;23.98;;
31798;SDS011;18374;51.136;3.502;2023-05-10T03:58:51;57.55;;;24.25;;
31798;SDS011;18374;51.136;3.502;2023-05-10T04:01:18;60.35;;;24.58;;
31798;SDS011;18374;51.136;3.502;2023-05-10T04:03:46;62.47;;;25.15;;
31798;SDS011;18374;51.136;3.502;2023-05-10T04:06:14;61.28;;;23.70;;
31798;SDS011;18374;51.136;3.502;2023-05-10T04:08:42;57.55;;;24.30;;
31798;SDS011;18374;51.136;3.502;2023-05-10T04:11:11;58.95;;;24.30;;
31798;SDS011;18374;51.136;3.502;2023-05-10T04:13:39;53.28;;;22.35;;
31798;SDS011;18374;51.136;3.502;2023-05-10T04:16:07;63.15;;;24.30;;
31798;SDS011;18374;51.136;3.502;2023-05-10T04:18:35;58.22;;;24.20;;
31798;SDS011;18374;51.136;3.502;2023-05-10T04:21:02;59.53;;;23.70;;
31798;SDS011;18374;51.136;3.502;2023-05-10T04:23:30;63.97;;;25.35;;
31798;SDS011;18374;51.136;3.502;2023-05-10T04:26:01;58.55;;;24.45;;
31798;SDS011;18374;51.136;3.502;2023-05-10T04:28:29;52.97;;;24.35;;
31798;SDS011;18374;51.136;3.502;2023-05-10T04:31:00;63.00;;;24.90;;
31798;SDS011;18374;51.136;3.502;2023-05-10T04:33:30;57.75;;;24.15;;
31798;SDS011;18374;51.136;3.502;2023-05-10T04:35:58;58.17;;;23.83;;
31798;SDS011;18374;51.136;3.502;2023-05-10T04:38:26;53.60;;;23.40;;
31798;SDS011;18374;51.136;3.502;2023-05-10T04:41:03;52.70;;;22.73;;
31798;SDS011;18374;51.136;3.502;2023-05-10T04:43:32;54.53;;;23.08;;
31798;SDS011;18374;51.136;3.502;2023-05-10T04:46:00;47.60;;;21.10;;
31798;SDS011;18374;51.136;3.502;2023-05-10T04:48:28;46.03;;;21.77;;
31798;SDS011;18374;51.136;3.502;2023-05-10T04:50:56;48.85;;;20.60;;
31798;SDS011;18374;51.136;3.502;2023-05-10T04:53:24;39.67;;;19.73;;
31798;SDS011;18374;51.136;3.502;2023-05-10T04:55:51;37.65;;;18.35;;
31798;SDS011;18374;51.136;3.502;2023-05-10T04:58:19;39.72;;;18.83;;
31798;SDS011;18374;51.136;3.502;2023-05-10T05:00:47;42.42;;;18.83;;
31798;SDS011;18374;51.136;3.502;2023-05-10T05:03:15;38.55;;;17.92;;
31798;SDS011;18374;51.136;3.502;2023-05-10T05:05:43;41.42;;;18.63;;
31798;SDS011;18374;51.136;3.502;2023-05-10T05:08:11;45.38;;;19.98;;
31798;SDS011;18374;51.136;3.502;2023-05-10T05:10:40;33.13;;;15.80;;
31798;SDS011;18374;51.136;3.502;2023-05-10T05:13:07;38.35;;;17.17;;
31798;SDS011;18374;51.136;3.502;2023-05-10T05:15:35;34.22;;;16.27;;
31798;SDS011;18374;51.136;3.502;2023-05-10T05:18:03;35.13;;;16.90;;
31798;SDS011;18374;51.136;3.502;2023-05-10T05:20:34;35.92;;;16.02;;
31798;SDS011;18374;51.136;3.502;2023-05-10T05:23:02;36.63;;;16.75;;
31798;SDS011;18374;51.136;3.502;2023-05-10T05:25:29;33.13;;;16.08;;
31798;SDS011;18374;51.136;3.502;2023-05-10T05:27:57;33.85;;;16.42;;
31798;SDS011;18374;51.136;3.502;2023-05-10T05:30:25;33.03;;;16.10;;
31798;SDS011;18374;51.136;3.502;2023-05-10T05:32:53;32.90;;;16.10;;
31798;SDS011;18374;51.136;3.502;2023-05-10T05:35:20;36.10;;;17.13;;
31798;SDS011;18374;51.136;3.502;2023-05-10T05:37:48;34.08;;;15.45;;
31798;SDS011;18374;51.136;3.502;2023-05-10T05:40:16;29.95;;;15.05;;
31798;SDS011;18374;51.136;3.502;2023-05-10T05:42:43;29.55;;;15.27;;
31798;SDS011;18374;51.136;3.502;2023-05-10T05:45:11;29.15;;;14.18;;
31798;SDS011;18374;51.136;3.502;2023-05-10T05:47:42;32.22;;;15.00;;
31798;SDS011;18374;51.136;3.502;2023-05-10T05:50:10;26.75;;;14.32;;
31798;SDS011;18374;51.136;3.502;2023-05-10T05:52:38;29.08;;;14.43;;
31798;SDS011;18374;51.136;3.502;2023-05-10T05:55:05;27.60;;;13.90;;
31798;SDS011;18374;51.136;3.502;2023-05-10T05:57:34;26.58;;;14.20;;
31798;SDS011;18374;51.136;3.502;2023-05-10T06:00:01;29.85;;;14.57;;
31798;SDS011;18374;51.136;3.502;2023-05-10T06:02:38;24.40;;;13.10;;
31798;SDS011;18374;51.136;3.502;2023-05-10T06:05:06;26.08;;;14.57;;
31798;SDS011;18374;51.136;3.502;2023-05-10T06:07:34;24.25;;;13.25;;
31798;SDS011;18374;51.136;3.502;2023-05-10T06:10:02;28.50;;;13.90;;
31798;SDS011;18374;51.136;3.502;2023-05-10T06:12:30;31.08;;;15.25;;
31798;SDS011;18374;51.136;3.502;2023-05-10T06:14:58;24.92;;;13.32;;
31798;SDS011;18374;51.136;3.502;2023-05-10T06:17:26;24.15;;;12.73;;
31798;SDS011;18374;51.136;3.502;2023-05-10T06:19:54;23.95;;;13.40;;
31798;SDS011;18374;51.136;3.502;2023-05-10T06:22:22;27.13;;;12.32;;
31798;SDS011;18374;51.136;3.502;2023-05-10T06:24:50;24.95;;;12.52;;
31798;SDS011;18374;51.136;3.502;2023-05-10T06:27:18;25.08;;;11.88;;
31798;SDS011;18374;51.136;3.502;2023-05-10T06:29:46;26.25;;;13.52;;
31798;SDS011;18374;51.136;3.502;2023-05-10T06:32:16;24.70;;;12.93;;
31798;SDS011;18374;51.136;3.502;2023-05-10T06:34:44;24.10;;;12.45;;
31798;SDS011;18374;51.136;3.502;2023-05-10T06:37:11;26.02;;;13.07;;
31798;SDS011;18374;51.136;3.502;2023-05-10T06:39:39;24.17;;;12.93;;
31798;SDS011;18374;51.136;3.502;2023-05-10T06:42:07;26.33;;;13.70;;
31798;SDS011;18374;51.136;3.502;2023-05-10T06:44:35;24.92;;;13.57;;
31798;SDS011;18374;51.136;3.502;2023-05-10T06:47:03;26.17;;;13.60;;
31798;SDS011;18374;51.136;3.502;2023-05-10T06:49:30;21.85;;;12.70;;
31798;SDS011;18374;51.136;3.502;2023-05-10T06:51:58;24.60;;;12.38;;
31798;SDS011;18374;51.136;3.502;2023-05-10T06:54:26;20.83;;;11.20;;
31798;SDS011;18374;51.136;3.502;2023-05-10T06:56:53;24.08;;;12.35;;
31798;SDS011;18374;51.136;3.502;2023-05-10T06:59:21;20.80;;;12.38;;
31798;SDS011;18374;51.136;3.502;2023-05-10T07:01:49;21.23;;;11.88;;
31798;SDS011;18374;51.136;3.502;2023-05-10T07:04:17;20.38;;;10.93;;
31798;SDS011;18374;51.136;3.502;2023-05-10T07:06:45;20.00;;;11.32;;
31798;SDS011;18374;51.136;3.502;2023-05-10T07:09:13;22.65;;;12.10;;
31798;SDS011;18374;51.136;3.502;2023-05-10T07:11:41;19.98;;;11.48;;
31798;SDS011;18374;51.136;3.502;2023-05-10T07:14:08;22.98;;;11.55;;
31798;SDS011;18374;51.136;3.502;2023-05-10T07:16:36;18.45;;;10.88;;
31798;SDS011;18374;51.136;3.502;2023-05-10T07:19:04;16.67;;;9.90;;
31798;SDS011;18374;51.136;3.502;2023-05-10T07:21:32;14.48;;;8.65;;
31798;SDS011;18374;51.136;3.502;2023-05-10T07:24:00;17.23;;;9.85;;
31798;SDS011;18374;51.136;3.502;2023-05-10T07:26:27;15.20;;;9.30;;
31798;SDS011;18374;51.136;3.502;2023-05-10T07:28:55;17.08;;;9.70;;
31798;SDS011;18374;51.136;3.502;2023-05-10T07:31:23;18.70;;;9.68;;
31798;SDS011;18374;51.136;3.502;2023-05-10T07:33:51;15.73;;;9.18;;
31798;SDS011;18374;51.136;3.502;2023-05-10T07:36:19;15.65;;;9.48;;
31798;SDS011;18374;51.136;3.502;2023-05-10T07:38:46;17.63;;;9.20;;
31798;SDS011;18374;51.136;3.502;2023-05-10T07:41:14;16.90;;;8.52;;
31798;SDS011;18374;51.136;3.502;2023-05-10T07:43:42;13.23;;;8.32;;
31798;SDS011;18374;51.136;3.502;2023-05-10T07:46:10;19.27;;;8.98;;
31798;SDS011;18374;51.136;3.502;2023-05-10T07:48:38;16.08;;;9.20;;
31798;SDS011;18374;51.136;3.502;2023-05-10T07:51:06;19.17;;;8.88;;
31798;SDS011;18374;51.136;3.502;2023-05-10T07:53:36;13.80;;;8.27;;
31798;SDS011;18374;51.136;3.502;2023-05-10T07:56:26;16.77;;;9.63;;
31798;SDS011;18374;51.136;3.502;2023-05-10T07:58:56;14.85;;;7.75;;
31798;SDS011;18374;51.136;3.502;2023-05-10T08:01:32;14.38;;;8.07;;
31798;SDS011;18374;51.136;3.502;2023-05-10T08:04:01;13.95;;;7.75;;
31798;SDS011;18374;51.136;3.502;2023-05-10T08:06:29;10.95;;;7.65;;
31798;SDS011;18374;51.136;3.502;2023-05-10T08:08:57;12.90;;;7.95;;
31798;SDS011;18374;51.136;3.502;2023-05-10T08:11:25;14.60;;;8.82;;
31798;SDS011;18374;51.136;3.502;2023-05-10T08:13:54;15.27;;;7.82;;
31798;SDS011;18374;51.136;3.502;2023-05-10T08:16:22;16.35;;;8.20;;
31798;SDS011;18374;51.136;3.502;2023-05-10T08:18:50;14.55;;;8.25;;
31798;SDS011;18374;51.136;3.502;2023-05-10T08:21:18;11.13;;;7.90;;
31798;SDS011;18374;51.136;3.502;2023-05-10T08:23:45;12.93;;;7.47;;
31798;SDS011;18374;51.136;3.502;2023-05-10T08:26:13;12.82;;;7.57;;
31798;SDS011;18374;51.136;3.502;2023-05-10T08:28:41;12.70;;;7.60;;
31798;SDS011;18374;51.136;3.502;2023-05-10T08:31:09;13.07;;;7.50;;
31798;SDS011;18374;51.136;3.502;2023-05-10T08:33:37;13.65;;;8.10;;
31798;SDS011;18374;51.136;3.502;2023-05-10T08:36:04;11.07;;;7.53;;
31798;SDS011;18374;51.136;3.502;2023-05-10T08:38:32;10.30;;;7.90;;
31798;SDS011;18374;51.136;3.502;2023-05-10T08:41:00;10.45;;;6.65;;
31798;SDS011;18374;51.136;3.502;2023-05-10T08:43:30;12.05;;;6.97;;
31798;SDS011;18374;51.136;3.502;2023-05-10T08:46:01;9.60;;;5.68;;
31798;SDS011;18374;51.136;3.502;2023-05-10T08:48:32;11.45;;;7.30;;
31798;SDS011;18374;51.136;3.502;2023-05-10T08:51:02;9.63;;;5.78;;
31798;SDS011;18374;51.136;3.502;2023-05-10T08:53:30;9.43;;;5.07;;
31798;SDS011;18374;51.136;3.502;2023-05-10T08:56:03;10.00;;;6.20;;
31798;SDS011;18374;51.136;3.502;2023-05-10T08:58:32;9.27;;;6.00;;
31798;SDS011;18374;51.136;3.502;2023-05-10T09:01:00;9.30;;;5.18;;
31798;SDS011;18374;51.136;3.502;2023-05-10T09:03:28;13.13;;;4.90;;
31798;SDS011;18374;51.136;3.502;2023-05-10T09:05:58;7.55;;;5.72;;
31798;SDS011;18374;51.136;3.502;2023-05-10T09:08:26;9.60;;;6.47;;
31798;SDS011;18374;51.136;3.502;2023-05-10T09:10:54;11.35;;;7.45;;
31798;SDS011;18374;51.136;3.502;2023-05-10T09:13:22;11.35;;;6.68;;
31798;SDS011;18374;51.136;3.502;2023-05-10T09:15:51;17.42;;;9.88;;
31798;SDS011;18374;51.136;3.502;2023-05-10T09:18:20;13.98;;;9.07;;
31798;SDS011;18374;51.136;3.502;2023-05-10T09:20:48;18.30;;;10.63;;
31798;SDS011;18374;51.136;3.502;2023-05-10T09:23:16;11.40;;;8.55;;
31798;SDS011;18374;51.136;3.502;2023-05-10T09:25:44;12.00;;;7.47;;
31798;SDS011;18374;51.136;3.502;2023-05-10T09:28:12;13.95;;;9.15;;
31798;SDS011;18374;51.136;3.502;2023-05-10T09:30:40;15.85;;;10.60;;
31798;SDS011;18374;51.136;3.502;2023-05-10T09:33:09;16.25;;;10.95;;
31798;SDS011;18374;51.136;3.502;2023-05-10T09:35:37;17.77;;;11.80;;
31798;SDS011;18374;51.136;3.502;2023-05-10T09:38:07;16.58;;;9.82;;
31798;SDS011;18374;51.136;3.502;2023-05-10T09:40:34;18.75;;;10.38;;
31798;SDS011;18374;51.136;3.502;2023-05-10T09:45:34;16.15;;;9.80;;
31798;SDS011;18374;51.136;3.502;2023-05-10T09:48:05;14.82;;;9.32;;
31798;SDS011;18374;51.136;3.502;2023-05-10T09:50:33;18.10;;;11.00;;
31798;SDS011;18374;51.136;3.502;2023-05-10T09:53:02;17.55;;;10.40;;
31798;SDS011;18374;51.136;3.502;2023-05-10T09:58:05;15.10;;;9.82;;
31798;SDS011;18374;51.136;3.502;2023-05-10T10:00:38;20.55;;;10.93;;
31798;SDS011;18374;51.136;3.502;2023-05-10T10:03:12;19.77;;;10.80;;
31798;SDS011;18374;51.136;3.502;2023-05-10T10:05:43;17.23;;;11.27;;
31798;SDS011;18374;51.136;3.502;2023-05-10T10:08:12;16.05;;;10.65;;
31798;SDS011;18374;51.136;3.502;2023-05-10T10:10:41;18.75;;;11.18;;
31798;SDS011;18374;51.136;3.502;2023-05-10T10:13:13;16.23;;;10.35;;
31798;SDS011;18374;51.136;3.502;2023-05-10T10:15:42;18.77;;;10.13;;
31798;SDS011;18374;51.136;3.502;2023-05-10T10:18:14;20.45;;;11.00;;
31798;SDS011;18374;51.136;3.502;2023-05-10T10:20:42;17.33;;;10.18;;
31798;SDS011;18374;51.136;3.502;2023-05-10T10:23:10;15.63;;;10.38;;
31798;SDS011;18374;51.136;3.502;2023-05-10T10:25:38;15.98;;;10.10;;
31798;SDS011;18374;51.136;3.502;2023-05-10T10:28:18;15.27;;;9.65;;
31798;SDS011;18374;51.136;3.502;2023-05-10T10:31:03;22.50;;;12.20;;
31798;SDS011;18374;51.136;3.502;2023-05-10T10:34:24;20.40;;;12.57;;
31798;SDS011;18374;51.136;3.502;2023-05-10T10:36:55;19.20;;;13.02;;
31798;SDS011;18374;51.136;3.502;2023-05-10T10:39:24;21.52;;;13.43;;
31798;SDS011;18374;51.136;3.502;2023-05-10T10:41:53;22.80;;;14.20;;
31798;SDS011;18374;51.136;3.502;2023-05-10T10:57:49;28.05;;;17.30;;
31798;SDS011;18374;51.136;3.502;2023-05-10T11:00:28;28.10;;;17.83;;
31798;SDS011;18374;51.136;3.502;2023-05-10T11:02:59;30.08;;;17.83;;
31798;SDS011;18374;51.136;3.502;2023-05-10T11:05:46;28.88;;;17.95;;
31798;SDS011;18374;51.136;3.502;2023-05-10T11:08:20;27.88;;;18.27;;
31798;SDS011;18374;51.136;3.502;2023-05-10T11:16:24;34.45;;;18.95;;
31798;SDS011;18374;51.136;3.502;2023-05-10T11:19:14;32.78;;;19.23;;
31798;SDS011;18374;51.136;3.502;2023-05-10T11:21:53;30.65;;;17.90;;
31798;SDS011;18374;51.136;3.502;2023-05-10T11:24:40;30.60;;;18.15;;
31798;SDS011;18374;51.136;3.502;2023-05-10T11:27:25;28.70;;;17.00;;
31798;SDS011;18374;51.136;3.502;2023-05-10T11:29:53;32.70;;;17.30;;
31798;SDS011;18374;51.136;3.502;2023-05-10T11:32:20;34.17;;;16.58;;
31798;SDS011;18374;51.136;3.502;2023-05-10T11:34:49;32.63;;;16.38;;
31798;SDS011;18374;51.136;3.502;2023-05-10T11:37:17;35.17;;;17.23;;
31798;SDS011;18374;51.136;3.502;2023-05-10T11:39:45;32.47;;;17.40;;
31798;SDS011;18374;51.136;3.502;2023-05-10T11:42:14;29.25;;;17.35;;
31798;SDS011;18374;51.136;3.502;2023-05-10T11:44:42;28.98;;;15.98;;
31798;SDS011;18374;51.136;3.502;2023-05-10T11:47:14;28.98;;;15.75;;
31798;SDS011;18374;51.136;3.502;2023-05-10T11:49:44;23.20;;;14.85;;
31798;SDS011;18374;51.136;3.502;2023-05-10T11:52:13;31.63;;;15.57;;
31798;SDS011;18374;51.136;3.502;2023-05-10T11:54:53;30.80;;;15.50;;
31798;SDS011;18374;51.136;3.502;2023-05-10T11:57:25;23.88;;;13.43;;
31798;SDS011;18374;51.136;3.502;2023-05-10T11:59:58;25.15;;;13.65;;
31798;SDS011;18374;51.136;3.502;2023-05-10T12:02:26;25.00;;;14.10;;
31798;SDS011;18374;51.136;3.502;2023-05-10T12:04:55;29.63;;;14.05;;
31798;SDS011;18374;51.136;3.502;2023-05-10T12:07:25;22.00;;;14.15;;
31798;SDS011;18374;51.136;3.502;2023-05-10T12:12:38;13.07;;;8.23;;
31798;SDS011;18374;51.136;3.502;2023-05-10T12:15:12;18.25;;;9.02;;
31798;SDS011;18374;51.136;3.502;2023-05-10T12:17:49;18.48;;;8.43;;
31798;SDS011;18374;51.136;3.502;2023-05-10T12:20:22;16.80;;;8.65;;
31798;SDS011;18374;51.136;3.502;2023-05-10T12:25:23;17.23;;;8.02;;
31798;SDS011;18374;51.136;3.502;2023-05-10T12:27:57;20.52;;;8.93;;
31798;SDS011;18374;51.136;3.502;2023-05-10T12:30:30;17.70;;;8.60;;
31798;SDS011;18374;51.136;3.502;2023-05-10T12:33:00;15.38;;;8.30;;
31798;SDS011;18374;51.136;3.502;2023-05-10T12:35:30;17.30;;;8.82;;
31798;SDS011;18374;51.136;3.502;2023-05-10T12:37:58;17.88;;;7.97;;
31798;SDS011;18374;51.136;3.502;2023-05-10T12:40:26;18.00;;;7.25;;
31798;SDS011;18374;51.136;3.502;2023-05-10T12:42:54;26.25;;;7.80;;
31798;SDS011;18374;51.136;3.502;2023-05-10T12:45:22;23.08;;;8.25;;
31798;SDS011;18374;51.136;3.502;2023-05-10T12:47:49;18.42;;;7.35;;
31798;SDS011;18374;51.136;3.502;2023-05-10T12:50:17;18.67;;;8.38;;
31798;SDS011;18374;51.136;3.502;2023-05-10T12:52:45;16.50;;;7.18;;
31798;SDS011;18374;51.136;3.502;2023-05-10T12:55:13;18.25;;;7.28;;
31798;SDS011;18374;51.136;3.502;2023-05-10T12:57:41;13.40;;;6.97;;
31798;SDS011;18374;51.136;3.502;2023-05-10T13:00:08;16.90;;;7.20;;
31798;SDS011;18374;51.136;3.502;2023-05-10T13:02:37;15.52;;;6.70;;
31798;SDS011;18374;51.136;3.502;2023-05-10T13:05:05;16.98;;;6.78;;
31798;SDS011;18374;51.136;3.502;2023-05-10T13:07:33;18.05;;;8.13;;
31798;SDS011;18374;51.136;3.502;2023-05-10T13:10:01;12.38;;;6.45;;
31798;SDS011;18374;51.136;3.502;2023-05-10T13:12:28;17.65;;;7.35;;
31798;SDS011;18374;51.136;3.502;2023-05-10T13:14:56;16.30;;;6.80;;
31798;SDS011;18374;51.136;3.502;2023-05-10T13:17:25;14.48;;;6.15;;
31798;SDS011;18374;51.136;3.502;2023-05-10T13:19:53;13.85;;;6.20;;
31798;SDS011;18374;51.136;3.502;2023-05-10T13:22:20;16.42;;;6.63;;
31798;SDS011;18374;51.136;3.502;2023-05-10T13:25:05;13.52;;;6.10;;
31798;SDS011;18374;51.136;3.502;2023-05-10T13:27:33;17.58;;;5.90;;
31798;SDS011;18374;51.136;3.502;2023-05-10T13:30:01;14.13;;;5.57;;
31798;SDS011;18374;51.136;3.502;2023-05-10T13:32:30;21.52;;;6.10;;
31798;SDS011;18374;51.136;3.502;2023-05-10T13:34:58;18.88;;;5.45;;
31798;SDS011;18374;51.136;3.502;2023-05-10T13:37:26;15.75;;;4.93;;
31798;SDS011;18374;51.136;3.502;2023-05-10T13:39:54;14.80;;;4.95;;
31798;SDS011;18374;51.136;3.502;2023-05-10T13:42:22;15.32;;;5.65;;
31798;SDS011;18374;51.136;3.502;2023-05-10T13:44:50;15.48;;;5.22;;
31798;SDS011;18374;51.136;3.502;2023-05-10T13:47:18;14.23;;;5.20;;
31798;SDS011;18374;51.136;3.502;2023-05-10T13:49:46;13.80;;;4.20;;
31798;SDS011;18374;51.136;3.502;2023-05-10T13:52:14;13.55;;;4.85;;
31798;SDS011;18374;51.136;3.502;2023-05-10T13:54:41;19.02;;;4.72;;
31798;SDS011;18374;51.136;3.502;2023-05-10T13:57:09;16.48;;;5.00;;
31798;SDS011;18374;51.136;3.502;2023-05-10T13:59:39;10.13;;;3.90;;
31798;SDS011;18374;51.136;3.502;2023-05-10T14:02:07;12.07;;;4.20;;
31798;SDS011;18374;51.136;3.502;2023-05-10T14:04:35;13.77;;;4.53;;
31798;SDS011;18374;51.136;3.502;2023-05-10T14:07:02;17.00;;;5.10;;
31798;SDS011;18374;51.136;3.502;2023-05-10T14:09:30;12.85;;;4.03;;
31798;SDS011;18374;51.136;3.502;2023-05-10T14:11:58;14.77;;;4.05;;
31798;SDS011;18374;51.136;3.502;2023-05-10T14:14:26;12.95;;;3.78;;
31798;SDS011;18374;51.136;3.502;2023-05-10T14:16:55;9.18;;;3.60;;
31798;SDS011;18374;51.136;3.502;2023-05-10T14:19:23;8.52;;;3.40;;
31798;SDS011;18374;51.136;3.502;2023-05-10T14:21:50;12.23;;;3.75;;
31798;SDS011;18374;51.136;3.502;2023-05-10T14:24:18;11.73;;;3.42;;
31798;SDS011;18374;51.136;3.502;2023-05-10T14:26:46;10.38;;;3.15;;
31798;SDS011;18374;51.136;3.502;2023-05-10T14:29:14;15.00;;;3.00;;
31798;SDS011;18374;51.136;3.502;2023-05-10T14:31:42;13.02;;;4.20;;
31798;SDS011;18374;51.136;3.502;2023-05-10T14:34:10;10.93;;;3.67;;
31798;SDS011;18374;51.136;3.502;2023-05-10T14:36:37;14.80;;;4.10;;
31798;SDS011;18374;51.136;3.502;2023-05-10T14:39:05;9.23;;;3.55;;
31798;SDS011;18374;51.136;3.502;2023-05-10T14:41:33;14.10;;;3.40;;
31798;SDS011;18374;51.136;3.502;2023-05-10T14:44:01;9.55;;;3.85;;
31798;SDS011;18374;51.136;3.502;2023-05-10T14:46:30;10.80;;;3.80;;
31798;SDS011;18374;51.136;3.502;2023-05-10T14:48:58;11.88;;;3.80;;
31798;SDS011;18374;51.136;3.502;2023-05-10T14:51:25;12.02;;;3.40;;
31798;SDS011;18374;51.136;3.502;2023-05-10T14:53:53;8.40;;;2.35;;
31798;SDS011;18374;51.136;3.502;2023-05-10T14:56:21;12.60;;;3.28;;
31798;SDS011;18374;51.136;3.502;2023-05-10T14:58:49;12.73;;;2.75;;
31798;SDS011;18374;51.136;3.502;2023-05-10T15:01:17;21.77;;;3.28;;
31798;SDS011;18374;51.136;3.502;2023-05-10T15:03:46;12.10;;;2.92;;
31798;SDS011;18374;51.136;3.502;2023-05-10T15:06:14;7.68;;;2.40;;
31798;SDS011;18374;51.136;3.502;2023-05-10T15:08:43;13.23;;;3.20;;
31798;SDS011;18374;51.136;3.502;2023-05-10T15:11:11;10.40;;;3.22;;
31798;SDS011;18374;51.136;3.502;2023-05-10T15:13:38;9.68;;;2.88;;
31798;SDS011;18374;51.136;3.502;2023-05-10T15:16:06;11.65;;;3.33;;
31798;SDS011;18374;51.136;3.502;2023-05-10T15:18:34;12.95;;;2.75;;
31798;SDS011;18374;51.136;3.502;2023-05-10T15:21:02;11.35;;;3.60;;
31798;SDS011;18374;51.136;3.502;2023-05-10T15:23:30;11.27;;;3.58;;
31798;SDS011;18374;51.136;3.502;2023-05-10T15:25:59;12.70;;;3.53;;
31798;SDS011;18374;51.136;3.502;2023-05-10T15:28:27;14.13;;;3.47;;